createdAt,value
2019-03-09T00:01:01.459Z,14.17
2019-03-09T00:03:33.499Z,12.65
2019-03-09T00:06:04.037Z,9.95
2019-03-09T00:08:34.917Z,12.03
2019-03-09T00:11:05.492Z,12.47
2019-03-09T00:13:36.024Z,30.82
2019-03-09T00:16:06.650Z,42.00
2019-03-09T00:18:37.119Z,36.60
2019-03-09T00:21:08.351Z,21.68
2019-03-09T00:23:56.605Z,18.48
2019-03-09T00:26:34.220Z,17.25
2019-03-09T00:29:15.626Z,18.00
2019-03-09T00:31:50.410Z,14.15
2019-03-09T00:34:23.911Z,11.83
2019-03-09T00:36:54.717Z,10.43
2019-03-09T00:39:26.141Z,9.88
2019-03-09T00:41:56.858Z,11.30
2019-03-09T00:44:27.382Z,11.67
2019-03-09T00:46:57.987Z,12.90
2019-03-09T00:49:28.685Z,15.78
2019-03-09T00:51:59.680Z,14.40
2019-03-09T00:54:30.351Z,11.95
2019-03-09T00:57:01.486Z,13.35
2019-03-09T00:59:32.031Z,14.70
2019-03-09T01:02:03.689Z,12.25
2019-03-09T01:04:34.156Z,9.85
2019-03-09T01:07:04.866Z,9.95
2019-03-09T01:09:36.466Z,9.43
2019-03-09T01:12:06.942Z,9.58
2019-03-09T01:14:37.428Z,9.83
2019-03-09T01:17:07.899Z,11.13
2019-03-09T01:19:38.327Z,13.32
2019-03-09T01:22:08.937Z,12.23
2019-03-09T01:24:39.488Z,11.50
2019-03-09T01:27:09.973Z,11.20
2019-03-09T01:29:40.718Z,10.00
2019-03-09T01:32:11.198Z,9.97
2019-03-09T01:34:41.787Z,9.97
2019-03-09T01:37:12.457Z,10.95
2019-03-09T01:39:42.923Z,10.08
2019-03-09T01:42:13.426Z,9.80
2019-03-09T01:44:43.858Z,10.10
2019-03-09T01:47:14.344Z,9.63
2019-03-09T01:49:44.837Z,9.47
2019-03-09T01:52:15.318Z,11.20
2019-03-09T01:54:45.745Z,10.72
2019-03-09T01:57:16.213Z,11.00
2019-03-09T01:59:47.726Z,11.13
2019-03-09T02:02:18.200Z,10.93
2019-03-09T02:04:49.619Z,10.40
2019-03-09T02:07:20.162Z,9.45
2019-03-09T02:09:50.615Z,9.98
2019-03-09T02:12:21.082Z,9.50
2019-03-09T02:14:51.781Z,9.23
2019-03-09T02:17:22.694Z,8.70
2019-03-09T02:19:53.349Z,8.33
2019-03-09T02:22:23.837Z,7.95
2019-03-09T02:24:55.775Z,7.80
2019-03-09T02:27:26.710Z,8.00
2019-03-09T02:30:00.745Z,8.60
2019-03-09T02:32:31.640Z,8.30
2019-03-09T02:35:02.074Z,9.70
2019-03-09T02:37:35.828Z,8.90
2019-03-09T02:40:11.684Z,12.13
2019-03-09T02:42:42.223Z,11.93
2019-03-09T02:45:15.739Z,12.20
2019-03-09T02:47:46.207Z,12.80
2019-03-09T02:50:17.195Z,11.12
2019-03-09T02:52:47.664Z,11.93
2019-03-09T02:55:18.092Z,11.33
2019-03-09T02:57:48.556Z,10.20
2019-03-09T03:00:20.073Z,10.13
2019-03-09T03:03:01.133Z,10.97
2019-03-09T03:05:31.632Z,8.98
2019-03-09T03:08:02.105Z,10.80
2019-03-09T03:10:32.544Z,9.95
2019-03-09T03:13:03.019Z,10.07
2019-03-09T03:15:35.866Z,10.03
2019-03-09T03:18:06.419Z,9.53
2019-03-09T03:20:36.865Z,10.15
2019-03-09T03:23:07.438Z,9.35
2019-03-09T03:25:37.869Z,8.93
2019-03-09T03:28:09.496Z,9.55
2019-03-09T03:30:40.015Z,8.83
2019-03-09T03:33:10.464Z,9.85
2019-03-09T03:35:40.897Z,8.93
2019-03-09T03:38:11.364Z,9.90
2019-03-09T03:40:41.799Z,8.65
2019-03-09T03:43:12.282Z,9.48
2019-03-09T03:45:42.712Z,9.78
2019-03-09T03:48:14.261Z,9.03
2019-03-09T03:50:44.699Z,9.55
2019-03-09T03:53:15.245Z,9.65
2019-03-09T03:55:45.679Z,10.03
2019-03-09T03:58:16.208Z,9.40
2019-03-09T04:00:46.627Z,9.60
2019-03-09T04:03:18.914Z,9.23
2019-03-09T04:09:26.715Z,9.95
2019-03-09T04:11:57.128Z,9.35
2019-03-09T04:14:27.605Z,8.83
2019-03-09T04:16:58.116Z,10.10
2019-03-09T04:19:28.579Z,8.35
2019-03-09T04:21:59.029Z,9.68
2019-03-09T04:24:29.567Z,8.80
2019-03-09T04:26:59.994Z,7.42
2019-03-09T04:29:30.460Z,7.92
2019-03-09T04:32:00.971Z,6.97
2019-03-09T04:34:31.433Z,7.62
2019-03-09T04:37:02.060Z,7.08
2019-03-09T04:39:32.532Z,7.33
2019-03-09T04:42:03.066Z,7.70
2019-03-09T04:44:33.535Z,7.65
2019-03-09T04:47:04.058Z,7.72
2019-03-09T04:49:34.601Z,8.33
2019-03-09T04:52:06.123Z,8.03
2019-03-09T04:54:37.536Z,7.97
2019-03-09T04:57:08.091Z,7.65
2019-03-09T04:59:38.556Z,8.93
2019-03-09T05:02:09.058Z,8.68
2019-03-09T05:04:41.843Z,6.22
2019-03-09T05:07:15.033Z,6.25
2019-03-09T05:09:57.801Z,6.87
2019-03-09T05:12:28.300Z,6.50
2019-03-09T05:14:58.862Z,7.17
2019-03-09T05:17:30.821Z,7.47
2019-03-09T05:20:01.804Z,7.28
2019-03-09T05:22:32.284Z,7.65
2019-03-09T05:25:02.816Z,8.83
2019-03-09T05:27:33.573Z,10.30
2019-03-09T05:30:06.145Z,9.85
2019-03-09T05:32:36.564Z,10.70
2019-03-09T05:35:07.095Z,10.80
2019-03-09T05:37:43.031Z,9.43
2019-03-09T05:40:09.830Z,8.73
2019-03-09T05:42:40.321Z,8.85
2019-03-09T05:45:10.911Z,9.30
2019-03-09T05:47:41.414Z,8.63
2019-03-09T05:50:11.965Z,10.00
2019-03-09T05:52:42.404Z,10.23
2019-03-09T05:55:13.443Z,10.70
2019-03-09T05:57:43.930Z,9.43
2019-03-09T06:00:14.959Z,10.03
2019-03-09T06:02:45.416Z,17.60
2019-03-09T06:05:37.631Z,14.60
2019-03-09T06:08:08.818Z,16.70
2019-03-09T06:10:39.472Z,17.95
2019-03-09T06:13:09.936Z,16.95
2019-03-09T06:15:43.681Z,10.75
2019-03-09T06:18:14.106Z,10.90
2019-03-09T06:20:44.922Z,10.48
2019-03-09T06:23:15.362Z,10.95
2019-03-09T06:25:45.822Z,10.68
2019-03-09T06:28:16.539Z,10.72
2019-03-09T06:30:47.030Z,10.93
2019-03-09T06:33:25.187Z,9.93
2019-03-09T06:36:13.861Z,9.80
2019-03-09T06:38:50.087Z,11.63
2019-03-09T06:41:23.890Z,11.33
2019-03-09T06:43:54.481Z,12.15
2019-03-09T06:46:26.332Z,12.20
2019-03-09T06:48:59.127Z,11.85
2019-03-09T06:51:31.187Z,10.98
2019-03-09T06:54:01.639Z,12.03
2019-03-09T06:56:32.168Z,11.18
2019-03-09T06:59:02.615Z,10.80
2019-03-09T07:01:33.074Z,12.70
2019-03-09T07:04:05.107Z,14.65
2019-03-09T07:06:35.664Z,16.62
2019-03-09T07:09:06.572Z,13.50
2019-03-09T07:11:37.090Z,12.88
2019-03-09T07:14:36.576Z,12.10
2019-03-09T07:17:07.252Z,12.20
2019-03-09T07:19:39.379Z,11.70
2019-03-09T07:22:10.008Z,11.22
2019-03-09T07:24:40.446Z,10.85
2019-03-09T07:27:11.002Z,10.50
2019-03-09T07:29:41.656Z,10.75
2019-03-09T07:32:12.126Z,14.05
2019-03-09T07:34:42.564Z,12.15
2019-03-09T07:37:13.038Z,10.80
2019-03-09T07:39:43.480Z,10.82
2019-03-09T07:42:13.966Z,9.93
2019-03-09T07:44:44.787Z,11.63
2019-03-09T07:47:15.332Z,10.23
2019-03-09T07:49:45.761Z,9.25
2019-03-09T07:52:31.370Z,11.22
2019-03-09T07:55:07.068Z,10.00
2019-03-09T07:57:37.630Z,10.25
2019-03-09T08:00:11.098Z,8.98
2019-03-09T08:02:41.639Z,8.58
2019-03-09T08:05:12.152Z,7.87
2019-03-09T08:07:42.798Z,7.87
2019-03-09T08:10:20.562Z,8.63
2019-03-09T08:12:51.041Z,8.10
2019-03-09T08:15:22.096Z,8.33
2019-03-09T08:17:55.779Z,8.25
2019-03-09T08:20:26.356Z,9.15
2019-03-09T08:22:57.040Z,9.90
2019-03-09T08:25:29.261Z,13.90
2019-03-09T08:28:01.397Z,9.25
2019-03-09T08:30:31.885Z,8.78
2019-03-09T08:33:03.561Z,10.08
2019-03-09T08:35:34.084Z,8.95
2019-03-09T08:38:04.541Z,9.30
2019-03-09T08:40:35.562Z,9.93
2019-03-09T08:43:06.223Z,8.90
2019-03-09T08:45:36.640Z,8.35
2019-03-09T08:48:07.170Z,10.95
2019-03-09T08:50:38.668Z,9.00
2019-03-09T08:53:09.142Z,8.23
2019-03-09T08:55:40.654Z,9.33
2019-03-09T08:58:11.296Z,6.70
2019-03-09T09:00:42.282Z,5.95
2019-03-09T09:03:13.585Z,6.97
2019-03-09T09:05:44.190Z,6.97
2019-03-09T09:08:15.312Z,6.00
2019-03-09T09:10:45.806Z,5.08
2019-03-09T09:13:16.527Z,6.50
2019-03-09T09:15:47.011Z,6.87
2019-03-09T09:18:17.563Z,6.78
2019-03-09T09:20:48.022Z,6.08
2019-03-09T09:23:18.561Z,6.72
2019-03-09T09:25:49.038Z,5.53
2019-03-09T09:28:19.503Z,6.70
2019-03-09T09:30:49.928Z,6.72
2019-03-09T09:33:20.400Z,5.83
2019-03-09T09:35:50.860Z,5.90
2019-03-09T09:38:21.398Z,5.70
2019-03-09T09:40:52.086Z,5.78
2019-03-09T09:43:22.734Z,4.72
2019-03-09T09:45:53.178Z,5.72
2019-03-09T09:48:23.734Z,6.72
2019-03-09T09:50:54.222Z,5.40
2019-03-09T09:53:24.671Z,6.22
2019-03-09T09:55:55.111Z,5.47
2019-03-09T09:58:25.534Z,4.70
2019-03-09T10:00:55.966Z,4.72
2019-03-09T10:03:26.427Z,4.00
2019-03-09T10:05:57.140Z,4.85
2019-03-09T10:08:27.595Z,5.97
2019-03-09T10:10:58.008Z,6.28
2019-03-09T10:13:28.915Z,6.10
2019-03-09T10:15:59.316Z,6.87
2019-03-09T10:18:29.770Z,6.90
2019-03-09T10:21:00.180Z,5.87
2019-03-09T10:23:30.774Z,6.85
2019-03-09T10:26:01.633Z,8.15
2019-03-09T10:28:32.129Z,4.97
2019-03-09T10:31:02.539Z,6.10
2019-03-09T10:33:33.008Z,6.30
2019-03-09T10:36:03.623Z,5.92
2019-03-09T10:38:35.835Z,5.62
2019-03-09T10:41:06.940Z,4.80
2019-03-09T10:43:37.985Z,6.67
2019-03-09T10:46:08.718Z,5.62
2019-03-09T10:48:39.949Z,6.85
2019-03-09T10:51:10.630Z,6.08
2019-03-09T10:53:41.767Z,5.80
2019-03-09T10:56:13.814Z,7.30
2019-03-09T10:58:45.961Z,5.75
2019-03-09T11:01:18.562Z,6.42
2019-03-09T11:03:49.716Z,5.58
2019-03-09T11:06:23.526Z,5.60
2019-03-09T11:08:54.149Z,4.30
2019-03-09T11:11:24.642Z,5.00
2019-03-09T11:13:55.167Z,6.22
2019-03-09T11:16:25.578Z,5.95
2019-03-09T11:18:56.101Z,5.20
2019-03-09T11:21:27.027Z,4.97
2019-03-09T11:23:57.674Z,5.58
2019-03-09T11:26:28.076Z,4.60
2019-03-09T11:28:59.592Z,4.17
2019-03-09T11:31:30.078Z,4.47
2019-03-09T11:34:00.563Z,4.25
2019-03-09T11:36:31.073Z,3.50
2019-03-09T11:39:01.539Z,2.75
2019-03-09T11:41:33.514Z,3.92
2019-03-09T11:44:03.980Z,3.10
2019-03-09T11:46:34.418Z,3.72
2019-03-09T11:49:04.880Z,4.80
2019-03-09T11:51:35.305Z,3.33
2019-03-09T11:54:05.836Z,4.62
2019-03-09T11:56:36.279Z,2.70
2019-03-09T11:59:06.751Z,3.05
2019-03-09T12:01:37.186Z,2.83
2019-03-09T12:04:07.651Z,2.50
2019-03-09T12:06:38.056Z,3.10
2019-03-09T12:09:08.498Z,2.25
2019-03-09T12:11:40.607Z,2.17
2019-03-09T12:14:11.072Z,1.67
2019-03-09T12:16:41.484Z,1.65
2019-03-09T12:19:12.006Z,1.85
2019-03-09T12:21:42.440Z,1.57
2019-03-09T12:24:17.736Z,1.82
2019-03-09T12:26:45.220Z,1.67
2019-03-09T12:29:15.755Z,1.65
2019-03-09T12:31:46.170Z,2.42
2019-03-09T12:34:16.635Z,1.95
2019-03-09T12:36:47.077Z,1.27
2019-03-09T12:39:17.597Z,1.07
2019-03-09T12:41:48.099Z,1.10
2019-03-09T12:44:18.562Z,1.20
2019-03-09T12:46:49.062Z,1.40
2019-03-09T12:49:19.600Z,1.30
2019-03-09T12:51:50.126Z,1.25
2019-03-09T12:54:20.601Z,1.32
2019-03-09T12:57:00.717Z,1.42
2019-03-09T12:59:32.125Z,0.93
2019-03-09T13:02:07.105Z,1.50
2019-03-09T13:04:37.583Z,1.85
2019-03-09T13:07:08.186Z,1.30
2019-03-09T13:09:38.651Z,1.10
2019-03-09T13:12:09.254Z,1.45
2019-03-09T13:14:39.768Z,1.00
2019-03-09T13:17:10.269Z,0.90
2019-03-09T13:19:40.753Z,0.90
2019-03-09T13:22:11.184Z,1.30
2019-03-09T13:24:41.661Z,1.12
2019-03-09T13:27:12.089Z,1.15
2019-03-09T13:29:42.651Z,1.12
2019-03-09T13:32:13.841Z,1.00
2019-03-09T13:34:44.555Z,1.62
2019-03-09T13:37:14.960Z,1.52
2019-03-09T13:39:45.812Z,1.47
2019-03-09T13:42:18.192Z,1.47
2019-03-09T13:44:49.695Z,1.47
2019-03-09T13:47:20.112Z,1.60
2019-03-09T13:49:50.597Z,1.90
2019-03-09T13:55:25.178Z,1.25
2019-03-09T13:57:55.684Z,1.20
2019-03-09T14:00:26.300Z,1.00
2019-03-09T14:02:56.819Z,1.60
2019-03-09T14:05:27.303Z,1.55
2019-03-09T14:07:57.737Z,2.27
2019-03-09T14:10:28.274Z,1.75
2019-03-09T14:12:58.693Z,1.30
2019-03-09T14:15:29.232Z,1.50
2019-03-09T14:17:59.651Z,1.37
2019-03-09T14:20:30.102Z,1.47
2019-03-09T14:23:00.639Z,1.82
2019-03-09T14:25:31.478Z,1.40
2019-03-09T14:28:01.902Z,1.60
2019-03-09T14:30:32.655Z,1.50
2019-03-09T14:33:03.256Z,1.50
2019-03-09T14:35:33.800Z,2.35
2019-03-09T14:38:04.273Z,1.80
2019-03-09T14:40:34.731Z,2.22
2019-03-09T14:43:05.304Z,2.33
2019-03-09T14:45:35.837Z,2.65
2019-03-09T14:48:06.240Z,2.60
2019-03-09T14:50:36.699Z,2.42
2019-03-09T14:53:07.424Z,2.35
2019-03-09T14:55:37.981Z,2.55
2019-03-09T14:58:08.388Z,2.50
2019-03-09T15:00:38.932Z,1.92
2019-03-09T15:03:09.504Z,1.57
2019-03-09T15:05:40.029Z,1.85
2019-03-09T15:08:10.608Z,2.72
2019-03-09T15:10:41.137Z,2.98
2019-03-09T15:13:12.099Z,1.67
2019-03-09T15:15:42.699Z,2.70
2019-03-09T15:18:13.195Z,3.70
2019-03-09T15:20:43.681Z,2.70
2019-03-09T15:23:14.114Z,2.85
2019-03-09T15:25:44.587Z,3.12
2019-03-09T15:28:15.038Z,2.62
2019-03-09T15:30:49.525Z,2.40
2019-03-09T15:33:21.855Z,2.42
2019-03-09T15:35:53.035Z,2.70
2019-03-09T15:38:23.542Z,1.77
2019-03-09T15:40:54.011Z,3.00
2019-03-09T15:43:24.521Z,3.90
2019-03-09T15:45:55.069Z,5.28
2019-03-09T15:48:25.622Z,3.67
2019-03-09T15:50:56.165Z,3.42
2019-03-09T15:53:26.678Z,3.20
2019-03-09T15:55:57.219Z,3.50
2019-03-09T15:58:27.647Z,3.45
2019-03-09T16:00:58.100Z,3.40
2019-03-09T16:03:28.617Z,4.10
2019-03-09T16:05:59.088Z,3.60
2019-03-09T16:08:29.585Z,3.95
2019-03-09T16:11:00.146Z,4.10
2019-03-09T16:13:30.636Z,4.47
2019-03-09T16:16:01.163Z,4.60
2019-03-09T16:18:32.711Z,4.22
2019-03-09T16:21:03.370Z,4.65
2019-03-09T16:23:33.798Z,4.05
2019-03-09T16:26:04.337Z,4.15
2019-03-09T16:28:34.833Z,4.83
2019-03-09T16:31:05.317Z,4.78
2019-03-09T16:33:36.796Z,4.62
2019-03-09T16:36:07.364Z,4.15
2019-03-09T16:38:38.951Z,5.05
2019-03-09T16:41:09.533Z,5.78
2019-03-09T16:43:40.076Z,9.20
2019-03-09T16:46:10.637Z,16.65
2019-03-09T16:48:41.091Z,10.55
2019-03-09T16:51:11.538Z,10.18
2019-03-09T16:53:42.008Z,11.97
2019-03-09T16:56:12.791Z,10.63
2019-03-09T16:58:43.309Z,12.93
2019-03-09T17:01:13.820Z,16.48
2019-03-09T17:03:44.343Z,10.65
2019-03-09T17:06:14.971Z,6.30
2019-03-09T17:08:45.434Z,5.70
2019-03-09T17:11:15.987Z,13.03
2019-03-09T17:13:46.804Z,10.63
2019-03-09T17:16:17.448Z,1.92
